Homestead ARB Airport
KHST : now visible

Airfield :











YOU CAN JOIN US ON...

 
LOGIN :

Register | Disclaimer

   EN    FR    IT 

 









Legend :    VFR   Marginal VFR   IFR   Intensive IFR   Very Intensive IFR
Visi :
Ceiling :
>= 8 km
>= 3000ft
5 to 8 km
1000 to 3000 ft
1500m to 5 km
500 to 1000 ft
800 to 1500m
200 to 500 ft
< 800m
< 200 ft
Symbols :   Thunderstorms  Fog  Heavy snow  Heavy precipitations  Wind > 20 kt







- Airport Elevation : 5 ft


KHST - Homestead ARB

CURRENT METAR :
  • 171308Z AUTO 10007KT 10SM SCT028 31/24 A3011 RMK AO2 DZB1256E08 SLP200 $

EXPIRED METARs :
  • 171256Z COR 10006KT 10SM SCT029 31/24 A3011 RMK AO2 SLP200 T03060240 $ COR 1300
  • 171251Z AUTO 09007KT 10SM -DZ SCT028 31/24 A3011 RMK AO2 DZB47E49DZB51 SLP200 $
  • 171156Z AUTO 11007KT 10SM FEW029 29/24 A3010 RMK AO2 SLP196 T02920236 10292 20273 52011 $
  • 171056Z AUTO 11006KT 10SM FEW029 27/23 A3008 RMK AO2 SLP189 T02740230 $

TAF TAF KHST
Valid from the 17 at 08:00 until the 18 at 14:00 UTC


170800Z 1708/1814 12006KT 9999 FEW025 SCT250 QNH3004INS
BECMG 1714/1715 12009KT 9999 FEW040 QNH3005INS
BECMG 1802/1803 09006KT 9999 FEW020 SCT250 QNH3003INS TX32/1718Z TN26/1709Z
KZMA FIR / North America



MET'MAP, your aeronautical weather chart ! - Copyright ORBIFLY December 2007 - Disclaimer

ORBIFLY MET'MAP TEAM :

Programming & Development : Alexandra Zaïnal
Concept & Development : Baudouin d'Aumeries
Co-Development & Prog : Marc-Olivier Méhu
Technical & hardware support : Manuel Goepfert

Contact : metmap@orbifly.com




SOURCES & CREDITS :

   NOAA       Earth
Advisory